Olivesburg, Ohio
Current Conditions -  °F | °C
As of 12:52 AM on Monday 22 Dec 2014 (Local Time) from KMFD Reporting Station
Clear Clear  
Wind Chill: 13°   Ceiling: Unl
Heat Index: 22°   Visibility: 7mi
Dew Point: 19°   Wind: 7mph
Humidity: 89%   Direction: 120°ESE
Pressure: 30.13"   Gusts: NA
Location:  40.8738°N, 82.3197°W
Report Text: KMFD 220552Z AUTO 12006KT 7SM CLR M06/M07 A3013 RMK AO2 SLP218 T10561072 11033 21056 56018
Loading
Personal Weather Stations






























Interactive Weather Map New forecast layout! Learn more

10-Day Weather Forecast

Advertisements
Track Severe Weather on mobile